Terminal Aerodrome Forecast
Issued by NWS Des Moines, IA

Home | Current Version | Previous Version | Text Only | Print | Product List | Glossary On
Versions: 1 2 3 4 5 6 7 8 9 10 11 12 13 14 15 16 17 18 19 20 21 22 23 24 25 26 27 28 29 30 31 32 33 34 35 36 37 38 39 40 41 42 43 44 45
000
FTUS43 KDMX 220537
TAFALO
TAF
KALO 220537Z 2206/2306 16013KT 6SM -DZ BR OVC009
     FM221000 15017KT 5SM -DZ BR OVC005
     FM221400 13016KT 3SM -RA BR OVC004
     FM221700 12016KT 2SM -RASN BR OVC004
     FM221900 11015KT 2SM -RA BR OVC002
     FM222200 10014KT 3SM -RA BR OVC005
     FM230400 06008KT 4SM -RASN BR OVC003=

USA.gov is the U.S. government's official web portal to all federal, state and local government web resources and services.